sensor_id;sensor_type;location;lat;lon;timestamp;P1;durP1;ratioP1;P2;durP2;ratioP2
5416;SDS011;2731;50.754;12.990;2023-09-12T00:01:29;11.98;;;8.52;;
5416;SDS011;2731;50.754;12.990;2023-09-12T00:03:58;10.80;;;8.93;;
5416;SDS011;2731;50.754;12.990;2023-09-12T00:06:27;12.98;;;9.00;;
5416;SDS011;2731;50.754;12.990;2023-09-12T00:08:54;12.35;;;9.15;;
5416;SDS011;2731;50.754;12.990;2023-09-12T00:11:20;11.48;;;9.05;;
5416;SDS011;2731;50.754;12.990;2023-09-12T00:13:59;13.38;;;9.98;;
5416;SDS011;2731;50.754;12.990;2023-09-12T00:16:25;13.27;;;9.02;;
5416;SDS011;2731;50.754;12.990;2023-09-12T00:18:55;11.88;;;9.75;;
5416;SDS011;2731;50.754;12.990;2023-09-12T00:21:23;11.63;;;9.07;;
5416;SDS011;2731;50.754;12.990;2023-09-12T00:23:55;11.57;;;9.85;;
5416;SDS011;2731;50.754;12.990;2023-09-12T00:26:24;14.85;;;9.55;;
5416;SDS011;2731;50.754;12.990;2023-09-12T00:28:50;9.13;;;7.97;;
5416;SDS011;2731;50.754;12.990;2023-09-12T00:31:19;14.75;;;10.10;;
5416;SDS011;2731;50.754;12.990;2023-09-12T00:33:46;11.77;;;8.85;;
5416;SDS011;2731;50.754;12.990;2023-09-12T00:36:14;13.13;;;9.93;;
5416;SDS011;2731;50.754;12.990;2023-09-12T00:38:40;13.45;;;10.10;;
5416;SDS011;2731;50.754;12.990;2023-09-12T00:41:07;11.05;;;9.10;;
5416;SDS011;2731;50.754;12.990;2023-09-12T00:43:33;11.10;;;9.68;;
5416;SDS011;2731;50.754;12.990;2023-09-12T00:46:00;11.95;;;9.50;;
5416;SDS011;2731;50.754;12.990;2023-09-12T00:48:27;12.48;;;9.77;;
5416;SDS011;2731;50.754;12.990;2023-09-12T00:51:05;15.27;;;10.38;;
5416;SDS011;2731;50.754;12.990;2023-09-12T00:53:35;15.27;;;10.13;;
5416;SDS011;2731;50.754;12.990;2023-09-12T00:56:04;10.65;;;9.55;;
5416;SDS011;2731;50.754;12.990;2023-09-12T00:58:32;13.98;;;9.27;;
5416;SDS011;2731;50.754;12.990;2023-09-12T01:01:00;11.48;;;9.85;;
5416;SDS011;2731;50.754;12.990;2023-09-12T01:03:27;13.65;;;9.77;;
5416;SDS011;2731;50.754;12.990;2023-09-12T01:05:57;11.23;;;9.02;;
5416;SDS011;2731;50.754;12.990;2023-09-12T01:08:24;12.85;;;9.95;;
5416;SDS011;2731;50.754;12.990;2023-09-12T01:10:52;12.95;;;10.07;;
5416;SDS011;2731;50.754;12.990;2023-09-12T01:13:19;12.45;;;9.32;;
5416;SDS011;2731;50.754;12.990;2023-09-12T01:15:59;12.48;;;10.10;;
5416;SDS011;2731;50.754;12.990;2023-09-12T01:18:29;12.85;;;10.13;;
5416;SDS011;2731;50.754;12.990;2023-09-12T01:24:21;17.52;;;9.70;;
5416;SDS011;2731;50.754;12.990;2023-09-12T01:29:36;14.48;;;10.27;;
5416;SDS011;2731;50.754;12.990;2023-09-12T01:32:05;10.75;;;9.65;;
5416;SDS011;2731;50.754;12.990;2023-09-12T01:34:31;11.98;;;9.25;;
5416;SDS011;2731;50.754;12.990;2023-09-12T01:36:57;12.05;;;9.82;;
5416;SDS011;2731;50.754;12.990;2023-09-12T01:39:24;12.45;;;9.82;;
5416;SDS011;2731;50.754;12.990;2023-09-12T01:41:53;14.30;;;9.57;;
5416;SDS011;2731;50.754;12.990;2023-09-12T01:44:22;13.23;;;10.27;;
5416;SDS011;2731;50.754;12.990;2023-09-12T01:46:53;11.82;;;9.77;;
5416;SDS011;2731;50.754;12.990;2023-09-12T01:49:23;15.65;;;10.15;;
5416;SDS011;2731;50.754;12.990;2023-09-12T01:51:51;9.82;;;8.30;;
5416;SDS011;2731;50.754;12.990;2023-09-12T01:54:17;11.18;;;9.20;;
5416;SDS011;2731;50.754;12.990;2023-09-12T01:56:45;13.77;;;9.05;;
5416;SDS011;2731;50.754;12.990;2023-09-12T01:59:12;9.65;;;8.38;;
5416;SDS011;2731;50.754;12.990;2023-09-12T02:01:40;12.07;;;9.05;;
5416;SDS011;2731;50.754;12.990;2023-09-12T02:04:07;12.98;;;9.50;;
5416;SDS011;2731;50.754;12.990;2023-09-12T02:06:34;12.73;;;9.85;;
5416;SDS011;2731;50.754;12.990;2023-09-12T02:09:03;11.13;;;8.80;;
5416;SDS011;2731;50.754;12.990;2023-09-12T02:11:33;12.57;;;9.02;;
5416;SDS011;2731;50.754;12.990;2023-09-12T02:13:59;11.50;;;9.82;;
5416;SDS011;2731;50.754;12.990;2023-09-12T02:16:30;11.30;;;8.82;;
5416;SDS011;2731;50.754;12.990;2023-09-12T02:19:00;12.88;;;8.85;;
5416;SDS011;2731;50.754;12.990;2023-09-12T02:21:27;12.02;;;9.65;;
5416;SDS011;2731;50.754;12.990;2023-09-12T02:23:55;15.60;;;10.50;;
5416;SDS011;2731;50.754;12.990;2023-09-12T02:26:23;13.93;;;10.18;;
5416;SDS011;2731;50.754;12.990;2023-09-12T02:28:51;12.20;;;9.15;;
5416;SDS011;2731;50.754;12.990;2023-09-12T02:31:18;13.63;;;9.73;;
5416;SDS011;2731;50.754;12.990;2023-09-12T02:33:47;11.57;;;8.40;;
5416;SDS011;2731;50.754;12.990;2023-09-12T02:36:15;12.15;;;8.93;;
5416;SDS011;2731;50.754;12.990;2023-09-12T02:38:44;14.15;;;9.27;;
5416;SDS011;2731;50.754;12.990;2023-09-12T02:41:12;11.90;;;8.75;;
5416;SDS011;2731;50.754;12.990;2023-09-12T02:43:40;13.55;;;9.00;;
5416;SDS011;2731;50.754;12.990;2023-09-12T02:46:08;23.02;;;9.50;;
5416;SDS011;2731;50.754;12.990;2023-09-12T02:48:37;11.43;;;9.13;;
5416;SDS011;2731;50.754;12.990;2023-09-12T02:51:04;11.98;;;9.02;;
5416;SDS011;2731;50.754;12.990;2023-09-12T02:53:31;10.98;;;9.18;;
5416;SDS011;2731;50.754;12.990;2023-09-12T02:56:00;11.55;;;8.93;;
5416;SDS011;2731;50.754;12.990;2023-09-12T02:58:29;14.75;;;9.75;;
5416;SDS011;2731;50.754;12.990;2023-09-12T03:00:55;15.48;;;8.65;;
5416;SDS011;2731;50.754;12.990;2023-09-12T03:03:23;13.10;;;9.45;;
5416;SDS011;2731;50.754;12.990;2023-09-12T03:06:01;13.45;;;9.52;;
5416;SDS011;2731;50.754;12.990;2023-09-12T03:08:28;14.32;;;9.23;;
5416;SDS011;2731;50.754;12.990;2023-09-12T03:10:57;11.52;;;8.85;;
5416;SDS011;2731;50.754;12.990;2023-09-12T03:13:24;15.80;;;9.95;;
5416;SDS011;2731;50.754;12.990;2023-09-12T03:15:53;15.18;;;9.25;;
5416;SDS011;2731;50.754;12.990;2023-09-12T03:18:19;13.10;;;8.25;;
5416;SDS011;2731;50.754;12.990;2023-09-12T03:20:48;11.85;;;8.30;;
5416;SDS011;2731;50.754;12.990;2023-09-12T03:23:16;12.45;;;8.98;;
5416;SDS011;2731;50.754;12.990;2023-09-12T03:25:42;15.05;;;8.57;;
5416;SDS011;2731;50.754;12.990;2023-09-12T03:28:08;11.52;;;9.23;;
5416;SDS011;2731;50.754;12.990;2023-09-12T03:30:35;10.32;;;8.57;;
5416;SDS011;2731;50.754;12.990;2023-09-12T03:33:02;11.77;;;8.88;;
5416;SDS011;2731;50.754;12.990;2023-09-12T03:35:30;13.18;;;8.52;;
5416;SDS011;2731;50.754;12.990;2023-09-12T03:37:58;11.32;;;8.20;;
5416;SDS011;2731;50.754;12.990;2023-09-12T03:40:29;10.38;;;8.40;;
5416;SDS011;2731;50.754;12.990;2023-09-12T03:42:59;10.18;;;8.00;;
5416;SDS011;2731;50.754;12.990;2023-09-12T03:45:27;10.75;;;8.38;;
5416;SDS011;2731;50.754;12.990;2023-09-12T03:47:55;10.25;;;8.50;;
5416;SDS011;2731;50.754;12.990;2023-09-12T03:50:21;11.38;;;8.73;;
5416;SDS011;2731;50.754;12.990;2023-09-12T03:52:49;11.25;;;8.55;;
5416;SDS011;2731;50.754;12.990;2023-09-12T03:55:18;11.00;;;8.23;;
5416;SDS011;2731;50.754;12.990;2023-09-12T03:57:45;10.55;;;8.38;;
5416;SDS011;2731;50.754;12.990;2023-09-12T04:00:13;10.35;;;8.50;;
5416;SDS011;2731;50.754;12.990;2023-09-12T04:02:41;13.43;;;7.97;;
5416;SDS011;2731;50.754;12.990;2023-09-12T04:05:08;11.45;;;8.82;;
5416;SDS011;2731;50.754;12.990;2023-09-12T04:07:36;12.13;;;8.10;;
5416;SDS011;2731;50.754;12.990;2023-09-12T04:10:05;11.55;;;9.00;;
5416;SDS011;2731;50.754;12.990;2023-09-12T04:12:37;10.35;;;8.45;;
5416;SDS011;2731;50.754;12.990;2023-09-12T04:15:09;11.95;;;8.85;;
5416;SDS011;2731;50.754;12.990;2023-09-12T04:17:37;11.68;;;8.30;;
5416;SDS011;2731;50.754;12.990;2023-09-12T04:20:05;11.55;;;7.90;;
5416;SDS011;2731;50.754;12.990;2023-09-12T04:22:34;14.15;;;8.77;;
5416;SDS011;2731;50.754;12.990;2023-09-12T04:25:05;9.33;;;8.13;;
5416;SDS011;2731;50.754;12.990;2023-09-12T04:27:33;11.32;;;8.32;;
5416;SDS011;2731;50.754;12.990;2023-09-12T04:30:00;11.25;;;8.40;;
5416;SDS011;2731;50.754;12.990;2023-09-12T04:32:27;11.55;;;9.10;;
5416;SDS011;2731;50.754;12.990;2023-09-12T04:34:55;11.23;;;8.98;;
5416;SDS011;2731;50.754;12.990;2023-09-12T04:37:21;14.90;;;8.25;;
5416;SDS011;2731;50.754;12.990;2023-09-12T04:39:48;11.20;;;8.32;;
5416;SDS011;2731;50.754;12.990;2023-09-12T04:42:15;9.60;;;7.85;;
5416;SDS011;2731;50.754;12.990;2023-09-12T04:44:43;11.02;;;8.25;;
5416;SDS011;2731;50.754;12.990;2023-09-12T04:47:12;11.25;;;8.13;;
5416;SDS011;2731;50.754;12.990;2023-09-12T04:49:39;11.63;;;7.55;;
5416;SDS011;2731;50.754;12.990;2023-09-12T04:52:08;10.30;;;7.88;;
5416;SDS011;2731;50.754;12.990;2023-09-12T04:54:35;16.67;;;8.25;;
5416;SDS011;2731;50.754;12.990;2023-09-12T04:57:02;8.65;;;7.72;;
5416;SDS011;2731;50.754;12.990;2023-09-12T04:59:30;10.25;;;8.20;;
5416;SDS011;2731;50.754;12.990;2023-09-12T05:02:01;11.32;;;7.85;;
5416;SDS011;2731;50.754;12.990;2023-09-12T05:04:48;13.45;;;8.05;;
5416;SDS011;2731;50.754;12.990;2023-09-12T05:07:17;10.07;;;8.18;;
5416;SDS011;2731;50.754;12.990;2023-09-12T05:09:44;13.85;;;8.07;;
5416;SDS011;2731;50.754;12.990;2023-09-12T05:12:11;10.07;;;8.00;;
5416;SDS011;2731;50.754;12.990;2023-09-12T05:14:38;12.43;;;8.63;;
5416;SDS011;2731;50.754;12.990;2023-09-12T05:17:06;10.82;;;7.95;;
5416;SDS011;2731;50.754;12.990;2023-09-12T05:19:32;10.95;;;8.10;;
5416;SDS011;2731;50.754;12.990;2023-09-12T05:21:58;10.73;;;7.97;;
5416;SDS011;2731;50.754;12.990;2023-09-12T05:24:42;10.60;;;7.78;;
5416;SDS011;2731;50.754;12.990;2023-09-12T05:27:08;10.07;;;8.07;;
5416;SDS011;2731;50.754;12.990;2023-09-12T05:29:35;10.15;;;7.93;;
5416;SDS011;2731;50.754;12.990;2023-09-12T05:32:07;8.93;;;7.07;;
5416;SDS011;2731;50.754;12.990;2023-09-12T05:34:33;11.40;;;8.02;;
5416;SDS011;2731;50.754;12.990;2023-09-12T05:36:59;13.80;;;8.50;;
5416;SDS011;2731;50.754;12.990;2023-09-12T05:39:26;10.02;;;7.93;;
5416;SDS011;2731;50.754;12.990;2023-09-12T05:41:55;11.43;;;7.68;;
5416;SDS011;2731;50.754;12.990;2023-09-12T05:44:21;14.63;;;8.70;;
5416;SDS011;2731;50.754;12.990;2023-09-12T05:46:49;12.88;;;8.40;;
5416;SDS011;2731;50.754;12.990;2023-09-12T05:49:23;10.13;;;8.25;;
5416;SDS011;2731;50.754;12.990;2023-09-12T05:51:51;12.15;;;9.10;;
5416;SDS011;2731;50.754;12.990;2023-09-12T05:54:20;10.05;;;7.60;;
5416;SDS011;2731;50.754;12.990;2023-09-12T05:56:47;11.80;;;8.15;;
5416;SDS011;2731;50.754;12.990;2023-09-12T05:59:15;15.07;;;8.43;;
5416;SDS011;2731;50.754;12.990;2023-09-12T06:01:42;9.40;;;7.55;;
5416;SDS011;2731;50.754;12.990;2023-09-12T06:04:08;11.25;;;8.48;;
5416;SDS011;2731;50.754;12.990;2023-09-12T06:06:34;11.52;;;8.35;;
5416;SDS011;2731;50.754;12.990;2023-09-12T06:09:05;18.98;;;8.80;;
5416;SDS011;2731;50.754;12.990;2023-09-12T06:11:34;10.45;;;8.02;;
5416;SDS011;2731;50.754;12.990;2023-09-12T06:14:02;12.48;;;8.00;;
5416;SDS011;2731;50.754;12.990;2023-09-12T06:16:29;11.68;;;8.15;;
5416;SDS011;2731;50.754;12.990;2023-09-12T06:18:56;11.27;;;7.88;;
5416;SDS011;2731;50.754;12.990;2023-09-12T06:21:24;10.10;;;7.70;;
5416;SDS011;2731;50.754;12.990;2023-09-12T06:24:14;9.85;;;7.65;;
5416;SDS011;2731;50.754;12.990;2023-09-12T06:26:39;10.70;;;7.72;;
5416;SDS011;2731;50.754;12.990;2023-09-12T06:29:07;9.70;;;7.20;;
5416;SDS011;2731;50.754;12.990;2023-09-12T06:31:33;11.52;;;7.60;;
5416;SDS011;2731;50.754;12.990;2023-09-12T06:34:02;10.55;;;7.70;;
5416;SDS011;2731;50.754;12.990;2023-09-12T06:36:29;13.13;;;8.32;;
5416;SDS011;2731;50.754;12.990;2023-09-12T06:38:56;9.95;;;7.57;;
5416;SDS011;2731;50.754;12.990;2023-09-12T06:41:25;17.35;;;6.75;;
5416;SDS011;2731;50.754;12.990;2023-09-12T06:43:54;10.30;;;7.43;;
5416;SDS011;2731;50.754;12.990;2023-09-12T06:46:22;11.32;;;7.35;;
5416;SDS011;2731;50.754;12.990;2023-09-12T06:48:48;9.88;;;7.20;;
5416;SDS011;2731;50.754;12.990;2023-09-12T06:51:15;10.70;;;7.63;;
5416;SDS011;2731;50.754;12.990;2023-09-12T06:53:42;11.57;;;7.25;;
5416;SDS011;2731;50.754;12.990;2023-09-12T06:56:11;10.32;;;7.43;;
5416;SDS011;2731;50.754;12.990;2023-09-12T06:58:37;11.93;;;8.20;;
5416;SDS011;2731;50.754;12.990;2023-09-12T07:01:07;8.90;;;6.82;;
5416;SDS011;2731;50.754;12.990;2023-09-12T07:03:51;9.18;;;7.30;;
5416;SDS011;2731;50.754;12.990;2023-09-12T07:06:21;10.38;;;6.80;;
5416;SDS011;2731;50.754;12.990;2023-09-12T07:08:53;9.70;;;6.63;;
5416;SDS011;2731;50.754;12.990;2023-09-12T07:11:20;8.93;;;6.85;;
5416;SDS011;2731;50.754;12.990;2023-09-12T07:13:49;11.88;;;6.82;;
5416;SDS011;2731;50.754;12.990;2023-09-12T07:16:16;13.93;;;8.55;;
5416;SDS011;2731;50.754;12.990;2023-09-12T07:18:43;14.20;;;7.75;;
5416;SDS011;2731;50.754;12.990;2023-09-12T07:21:14;9.90;;;7.32;;
5416;SDS011;2731;50.754;12.990;2023-09-12T07:23:41;13.45;;;7.25;;
5416;SDS011;2731;50.754;12.990;2023-09-12T07:26:12;9.02;;;6.90;;
5416;SDS011;2731;50.754;12.990;2023-09-12T07:28:39;9.05;;;6.63;;
5416;SDS011;2731;50.754;12.990;2023-09-12T07:31:06;9.05;;;7.38;;
5416;SDS011;2731;50.754;12.990;2023-09-12T07:33:33;8.52;;;6.55;;
5416;SDS011;2731;50.754;12.990;2023-09-12T07:36:00;10.38;;;7.15;;
5416;SDS011;2731;50.754;12.990;2023-09-12T07:38:31;11.65;;;6.68;;
5416;SDS011;2731;50.754;12.990;2023-09-12T07:41:01;13.32;;;6.85;;
5416;SDS011;2731;50.754;12.990;2023-09-12T07:43:33;9.07;;;6.30;;
5416;SDS011;2731;50.754;12.990;2023-09-12T07:46:03;9.13;;;6.28;;
5416;SDS011;2731;50.754;12.990;2023-09-12T07:48:31;9.30;;;6.63;;
5416;SDS011;2731;50.754;12.990;2023-09-12T07:51:00;13.15;;;6.95;;
5416;SDS011;2731;50.754;12.990;2023-09-12T07:53:28;9.70;;;6.15;;
5416;SDS011;2731;50.754;12.990;2023-09-12T07:55:58;9.70;;;6.43;;
5416;SDS011;2731;50.754;12.990;2023-09-12T07:58:26;11.20;;;6.53;;
5416;SDS011;2731;50.754;12.990;2023-09-12T08:00:53;11.18;;;5.65;;
5416;SDS011;2731;50.754;12.990;2023-09-12T08:03:21;7.30;;;5.55;;
5416;SDS011;2731;50.754;12.990;2023-09-12T08:05:55;15.55;;;5.90;;
5416;SDS011;2731;50.754;12.990;2023-09-12T08:08:26;10.57;;;6.43;;
5416;SDS011;2731;50.754;12.990;2023-09-12T08:10:52;9.38;;;5.85;;
5416;SDS011;2731;50.754;12.990;2023-09-12T08:13:29;8.02;;;5.47;;
5416;SDS011;2731;50.754;12.990;2023-09-12T08:15:58;10.68;;;5.82;;
5416;SDS011;2731;50.754;12.990;2023-09-12T08:18:27;9.18;;;5.57;;
5416;SDS011;2731;50.754;12.990;2023-09-12T08:20:53;11.40;;;5.70;;
5416;SDS011;2731;50.754;12.990;2023-09-12T08:23:20;7.25;;;5.47;;
5416;SDS011;2731;50.754;12.990;2023-09-12T08:25:47;11.75;;;5.53;;
5416;SDS011;2731;50.754;12.990;2023-09-12T08:28:15;12.75;;;5.50;;
5416;SDS011;2731;50.754;12.990;2023-09-12T08:30:44;9.43;;;5.63;;
5416;SDS011;2731;50.754;12.990;2023-09-12T08:33:15;10.38;;;5.47;;
5416;SDS011;2731;50.754;12.990;2023-09-12T08:35:44;7.70;;;4.63;;
5416;SDS011;2731;50.754;12.990;2023-09-12T08:38:14;8.73;;;4.50;;
5416;SDS011;2731;50.754;12.990;2023-09-12T08:40:52;8.20;;;4.90;;
5416;SDS011;2731;50.754;12.990;2023-09-12T08:43:20;9.63;;;6.07;;
5416;SDS011;2731;50.754;12.990;2023-09-12T08:45:48;13.00;;;5.75;;
5416;SDS011;2731;50.754;12.990;2023-09-12T08:48:19;8.65;;;5.25;;
5416;SDS011;2731;50.754;12.990;2023-09-12T08:50:49;15.82;;;5.70;;
5416;SDS011;2731;50.754;12.990;2023-09-12T08:53:17;8.65;;;4.43;;
5416;SDS011;2731;50.754;12.990;2023-09-12T08:55:51;8.93;;;5.03;;
5416;SDS011;2731;50.754;12.990;2023-09-12T08:58:19;8.75;;;4.13;;
5416;SDS011;2731;50.754;12.990;2023-09-12T09:00:48;11.57;;;4.60;;
5416;SDS011;2731;50.754;12.990;2023-09-12T09:03:17;13.85;;;5.22;;
5416;SDS011;2731;50.754;12.990;2023-09-12T09:05:45;9.02;;;4.78;;
5416;SDS011;2731;50.754;12.990;2023-09-12T09:08:23;14.52;;;5.18;;
5416;SDS011;2731;50.754;12.990;2023-09-12T09:10:58;11.30;;;5.28;;
5416;SDS011;2731;50.754;12.990;2023-09-12T09:13:32;10.70;;;5.00;;
5416;SDS011;2731;50.754;12.990;2023-09-12T09:16:17;8.98;;;4.88;;
5416;SDS011;2731;50.754;12.990;2023-09-12T09:21:22;14.95;;;5.30;;
5416;SDS011;2731;50.754;12.990;2023-09-12T09:23:55;11.32;;;4.90;;
5416;SDS011;2731;50.754;12.990;2023-09-12T09:26:49;16.52;;;5.50;;
5416;SDS011;2731;50.754;12.990;2023-09-12T09:29:16;10.57;;;4.85;;
5416;SDS011;2731;50.754;12.990;2023-09-12T09:31:48;12.93;;;4.95;;
5416;SDS011;2731;50.754;12.990;2023-09-12T09:34:16;14.90;;;5.80;;
5416;SDS011;2731;50.754;12.990;2023-09-12T09:36:43;10.35;;;5.20;;
5416;SDS011;2731;50.754;12.990;2023-09-12T09:39:12;12.18;;;4.68;;
5416;SDS011;2731;50.754;12.990;2023-09-12T09:41:38;14.70;;;5.10;;
5416;SDS011;2731;50.754;12.990;2023-09-12T09:44:05;5.53;;;4.20;;
5416;SDS011;2731;50.754;12.990;2023-09-12T09:46:31;12.18;;;5.38;;
5416;SDS011;2731;50.754;12.990;2023-09-12T09:48:59;13.43;;;4.78;;
5416;SDS011;2731;50.754;12.990;2023-09-12T09:51:25;14.45;;;5.22;;
5416;SDS011;2731;50.754;12.990;2023-09-12T09:53:53;12.35;;;4.68;;
5416;SDS011;2731;50.754;12.990;2023-09-12T09:56:25;9.38;;;5.38;;
5416;SDS011;2731;50.754;12.990;2023-09-12T09:58:55;8.05;;;5.60;;
5416;SDS011;2731;50.754;12.990;2023-09-12T10:01:28;6.63;;;5.00;;
5416;SDS011;2731;50.754;12.990;2023-09-12T10:04:00;13.93;;;5.88;;
5416;SDS011;2731;50.754;12.990;2023-09-12T10:06:30;11.48;;;5.00;;
5416;SDS011;2731;50.754;12.990;2023-09-12T10:08:58;11.98;;;5.45;;
5416;SDS011;2731;50.754;12.990;2023-09-12T10:11:27;10.15;;;5.65;;
5416;SDS011;2731;50.754;12.990;2023-09-12T10:13:59;12.73;;;5.82;;
5416;SDS011;2731;50.754;12.990;2023-09-12T10:16:47;10.40;;;5.80;;
5416;SDS011;2731;50.754;12.990;2023-09-12T10:19:24;12.77;;;5.53;;
5416;SDS011;2731;50.754;12.990;2023-09-12T10:21:59;11.50;;;5.03;;
5416;SDS011;2731;50.754;12.990;2023-09-12T10:24:32;11.45;;;5.45;;
5416;SDS011;2731;50.754;12.990;2023-09-12T10:26:59;11.23;;;5.47;;
5416;SDS011;2731;50.754;12.990;2023-09-12T10:29:29;19.15;;;6.07;;
5416;SDS011;2731;50.754;12.990;2023-09-12T10:31:56;12.85;;;5.53;;
5416;SDS011;2731;50.754;12.990;2023-09-12T10:34:24;10.13;;;5.30;;
5416;SDS011;2731;50.754;12.990;2023-09-12T10:36:54;10.95;;;5.93;;
5416;SDS011;2731;50.754;12.990;2023-09-12T10:39:22;11.85;;;6.40;;
5416;SDS011;2731;50.754;12.990;2023-09-12T10:41:50;9.65;;;5.13;;
5416;SDS011;2731;50.754;12.990;2023-09-12T10:44:18;10.75;;;5.20;;
5416;SDS011;2731;50.754;12.990;2023-09-12T10:46:50;9.98;;;5.43;;
5416;SDS011;2731;50.754;12.990;2023-09-12T10:49:17;12.98;;;5.22;;
5416;SDS011;2731;50.754;12.990;2023-09-12T10:51:46;12.50;;;5.88;;
5416;SDS011;2731;50.754;12.990;2023-09-12T10:54:16;10.65;;;4.68;;
5416;SDS011;2731;50.754;12.990;2023-09-12T10:57:07;15.80;;;5.38;;
5416;SDS011;2731;50.754;12.990;2023-09-12T10:59:48;13.07;;;6.00;;
5416;SDS011;2731;50.754;12.990;2023-09-12T11:04:58;11.07;;;5.03;;
5416;SDS011;2731;50.754;12.990;2023-09-12T11:10:27;10.60;;;5.47;;
5416;SDS011;2731;50.754;12.990;2023-09-12T11:12:58;11.05;;;5.50;;
5416;SDS011;2731;50.754;12.990;2023-09-12T11:15:26;11.35;;;5.70;;
5416;SDS011;2731;50.754;12.990;2023-09-12T11:18:02;10.38;;;5.22;;
5416;SDS011;2731;50.754;12.990;2023-09-12T11:23:16;11.68;;;5.25;;
5416;SDS011;2731;50.754;12.990;2023-09-12T11:25:43;14.07;;;5.40;;
5416;SDS011;2731;50.754;12.990;2023-09-12T11:28:11;10.95;;;6.00;;
5416;SDS011;2731;50.754;12.990;2023-09-12T11:30:54;11.45;;;5.43;;
5416;SDS011;2731;50.754;12.990;2023-09-12T11:33:26;10.13;;;5.07;;
5416;SDS011;2731;50.754;12.990;2023-09-12T11:35:58;15.45;;;5.30;;
5416;SDS011;2731;50.754;12.990;2023-09-12T11:38:31;13.60;;;5.32;;
5416;SDS011;2731;50.754;12.990;2023-09-12T11:40:59;20.67;;;5.80;;
5416;SDS011;2731;50.754;12.990;2023-09-12T11:43:37;9.82;;;4.70;;
5416;SDS011;2731;50.754;12.990;2023-09-12T11:48:30;11.43;;;5.00;;
5416;SDS011;2731;50.754;12.990;2023-09-12T11:50:58;11.77;;;5.55;;
5416;SDS011;2731;50.754;12.990;2023-09-12T11:53:27;14.05;;;5.32;;
5416;SDS011;2731;50.754;12.990;2023-09-12T11:56:05;8.95;;;4.88;;
5416;SDS011;2731;50.754;12.990;2023-09-12T11:58:32;14.50;;;6.40;;
5416;SDS011;2731;50.754;12.990;2023-09-12T12:01:02;8.13;;;4.50;;
5416;SDS011;2731;50.754;12.990;2023-09-12T12:03:30;11.85;;;4.45;;
5416;SDS011;2731;50.754;12.990;2023-09-12T12:05:57;9.82;;;4.43;;
5416;SDS011;2731;50.754;12.990;2023-09-12T12:08:25;6.25;;;3.92;;
5416;SDS011;2731;50.754;12.990;2023-09-12T12:10:53;10.93;;;4.65;;
5416;SDS011;2731;50.754;12.990;2023-09-12T12:13:22;11.82;;;5.30;;
5416;SDS011;2731;50.754;12.990;2023-09-12T12:15:52;8.18;;;4.93;;
5416;SDS011;2731;50.754;12.990;2023-09-12T12:18:32;9.95;;;5.18;;
5416;SDS011;2731;50.754;12.990;2023-09-12T12:21:00;7.90;;;4.45;;
5416;SDS011;2731;50.754;12.990;2023-09-12T12:23:33;8.60;;;4.65;;
5416;SDS011;2731;50.754;12.990;2023-09-12T12:26:09;9.45;;;4.60;;
5416;SDS011;2731;50.754;12.990;2023-09-12T12:28:37;6.78;;;4.40;;
5416;SDS011;2731;50.754;12.990;2023-09-12T12:31:06;8.35;;;4.43;;
5416;SDS011;2731;50.754;12.990;2023-09-12T12:33:33;8.85;;;4.05;;
5416;SDS011;2731;50.754;12.990;2023-09-12T12:38:38;5.82;;;4.18;;
5416;SDS011;2731;50.754;12.990;2023-09-12T12:41:21;8.93;;;4.20;;
5416;SDS011;2731;50.754;12.990;2023-09-12T12:46:25;15.25;;;5.28;;
5416;SDS011;2731;50.754;12.990;2023-09-12T12:48:53;9.48;;;5.35;;
5416;SDS011;2731;50.754;12.990;2023-09-12T12:51:21;7.32;;;4.18;;
5416;SDS011;2731;50.754;12.990;2023-09-12T12:53:49;11.18;;;4.28;;
5416;SDS011;2731;50.754;12.990;2023-09-12T12:56:18;6.85;;;4.13;;
5416;SDS011;2731;50.754;12.990;2023-09-12T12:58:49;8.95;;;4.65;;
5416;SDS011;2731;50.754;12.990;2023-09-12T13:01:17;9.70;;;4.60;;
5416;SDS011;2731;50.754;12.990;2023-09-12T13:03:53;9.05;;;4.35;;
5416;SDS011;2731;50.754;12.990;2023-09-12T13:06:24;12.45;;;5.10;;
5416;SDS011;2731;50.754;12.990;2023-09-12T13:08:55;8.95;;;4.85;;
5416;SDS011;2731;50.754;12.990;2023-09-12T13:11:25;10.60;;;4.88;;
5416;SDS011;2731;50.754;12.990;2023-09-12T13:13:51;9.10;;;4.18;;
5416;SDS011;2731;50.754;12.990;2023-09-12T13:16:22;7.45;;;3.92;;
5416;SDS011;2731;50.754;12.990;2023-09-12T13:18:50;14.45;;;4.72;;
5416;SDS011;2731;50.754;12.990;2023-09-12T13:21:17;8.63;;;4.10;;
5416;SDS011;2731;50.754;12.990;2023-09-12T13:23:45;11.38;;;4.78;;
5416;SDS011;2731;50.754;12.990;2023-09-12T13:26:14;7.90;;;4.00;;
5416;SDS011;2731;50.754;12.990;2023-09-12T13:28:46;7.90;;;4.28;;
5416;SDS011;2731;50.754;12.990;2023-09-12T13:31:13;10.95;;;4.40;;
5416;SDS011;2731;50.754;12.990;2023-09-12T13:33:43;8.40;;;4.18;;
5416;SDS011;2731;50.754;12.990;2023-09-12T13:36:10;6.57;;;5.03;;
5416;SDS011;2731;50.754;12.990;2023-09-12T13:41:10;10.43;;;4.85;;
5416;SDS011;2731;50.754;12.990;2023-09-12T13:43:40;7.00;;;4.38;;
5416;SDS011;2731;50.754;12.990;2023-09-12T13:46:27;7.90;;;4.82;;
5416;SDS011;2731;50.754;12.990;2023-09-12T13:48:58;9.30;;;4.88;;
5416;SDS011;2731;50.754;12.990;2023-09-12T13:51:26;12.60;;;5.72;;
5416;SDS011;2731;50.754;12.990;2023-09-12T13:53:53;8.45;;;4.80;;
5416;SDS011;2731;50.754;12.990;2023-09-12T13:56:21;9.85;;;4.85;;
5416;SDS011;2731;50.754;12.990;2023-09-12T13:58:54;14.60;;;4.97;;
5416;SDS011;2731;50.754;12.990;2023-09-12T14:01:23;10.00;;;4.22;;
5416;SDS011;2731;50.754;12.990;2023-09-12T14:03:52;8.27;;;4.07;;
5416;SDS011;2731;50.754;12.990;2023-09-12T14:06:22;11.18;;;5.00;;
5416;SDS011;2731;50.754;12.990;2023-09-12T14:08:51;10.60;;;4.70;;
5416;SDS011;2731;50.754;12.990;2023-09-12T14:11:17;13.10;;;4.55;;
5416;SDS011;2731;50.754;12.990;2023-09-12T14:13:46;10.15;;;4.95;;
5416;SDS011;2731;50.754;12.990;2023-09-12T14:16:14;8.57;;;4.40;;
5416;SDS011;2731;50.754;12.990;2023-09-12T14:18:42;7.50;;;4.80;;
5416;SDS011;2731;50.754;12.990;2023-09-12T14:21:10;10.85;;;4.70;;
5416;SDS011;2731;50.754;12.990;2023-09-12T14:23:37;9.25;;;4.20;;
5416;SDS011;2731;50.754;12.990;2023-09-12T14:26:05;8.57;;;4.55;;
5416;SDS011;2731;50.754;12.990;2023-09-12T14:28:35;10.45;;;4.40;;
5416;SDS011;2731;50.754;12.990;2023-09-12T14:31:02;10.98;;;5.07;;
5416;SDS011;2731;50.754;12.990;2023-09-12T14:33:32;10.23;;;5.25;;
5416;SDS011;2731;50.754;12.990;2023-09-12T14:36:00;7.18;;;5.20;;
5416;SDS011;2731;50.754;12.990;2023-09-12T14:38:31;11.60;;;5.25;;
5416;SDS011;2731;50.754;12.990;2023-09-12T14:40:57;9.35;;;4.85;;
5416;SDS011;2731;50.754;12.990;2023-09-12T14:43:23;9.60;;;4.25;;
5416;SDS011;2731;50.754;12.990;2023-09-12T14:45:56;9.00;;;4.30;;
5416;SDS011;2731;50.754;12.990;2023-09-12T14:48:52;10.70;;;4.85;;
5416;SDS011;2731;50.754;12.990;2023-09-12T14:51:21;10.27;;;4.72;;
5416;SDS011;2731;50.754;12.990;2023-09-12T14:53:48;7.32;;;3.88;;
5416;SDS011;2731;50.754;12.990;2023-09-12T14:56:35;7.72;;;4.43;;
5416;SDS011;2731;50.754;12.990;2023-09-12T14:59:06;5.03;;;4.13;;
5416;SDS011;2731;50.754;12.990;2023-09-12T15:01:33;7.30;;;4.22;;
5416;SDS011;2731;50.754;12.990;2023-09-12T15:04:02;8.15;;;4.15;;
5416;SDS011;2731;50.754;12.990;2023-09-12T15:06:29;9.00;;;4.32;;
5416;SDS011;2731;50.754;12.990;2023-09-12T15:08:59;9.93;;;4.43;;
5416;SDS011;2731;50.754;12.990;2023-09-12T15:11:27;10.80;;;4.82;;
5416;SDS011;2731;50.754;12.990;2023-09-12T15:13:58;12.27;;;4.90;;
5416;SDS011;2731;50.754;12.990;2023-09-12T15:16:31;6.72;;;4.65;;
5416;SDS011;2731;50.754;12.990;2023-09-12T15:19:02;10.82;;;5.10;;
5416;SDS011;2731;50.754;12.990;2023-09-12T15:21:31;9.35;;;4.03;;
5416;SDS011;2731;50.754;12.990;2023-09-12T15:23:58;6.35;;;4.15;;
5416;SDS011;2731;50.754;12.990;2023-09-12T15:26:28;7.07;;;4.50;;
5416;SDS011;2731;50.754;12.990;2023-09-12T15:28:58;10.27;;;4.20;;
5416;SDS011;2731;50.754;12.990;2023-09-12T15:31:27;9.85;;;4.32;;